createdAt,value
2023-01-27T00:01:17.449Z,20.40
2023-01-27T00:03:45.746Z,19.70
2023-01-27T00:06:13.772Z,19.40
2023-01-27T00:08:41.621Z,20.90
2023-01-27T00:11:27.880Z,22.20
2023-01-27T00:13:55.911Z,21.90
2023-01-27T00:16:23.814Z,22.00
2023-01-27T00:18:51.757Z,20.50
2023-01-27T00:21:37.919Z,20.70
2023-01-27T00:24:24.802Z,20.80
2023-01-27T00:26:52.724Z,20.10
2023-01-27T00:29:20.603Z,20.30
2023-01-27T00:32:07.172Z,19.90
2023-01-27T00:34:35.136Z,21.20
2023-01-27T00:37:03.034Z,21.90
2023-01-27T00:39:30.916Z,23.10
2023-01-27T00:41:58.797Z,21.00
2023-01-27T00:44:26.679Z,23.50
2023-01-27T00:46:54.642Z,22.40
2023-01-27T00:49:22.785Z,22.20
2023-01-27T00:51:51.085Z,20.50
2023-01-27T00:54:19.112Z,21.20
2023-01-27T00:56:47.045Z,20.30
2023-01-27T00:59:14.921Z,21.10
2023-01-27T01:01:42.877Z,20.30
2023-01-27T01:04:10.763Z,19.70
2023-01-27T01:06:38.724Z,20.30
2023-01-27T01:09:06.550Z,21.20
2023-01-27T01:11:34.452Z,21.20
2023-01-27T01:14:02.377Z,19.90
2023-01-27T01:16:30.319Z,19.60
2023-01-27T01:18:58.480Z,20.60
2023-01-27T01:21:26.491Z,19.20
2023-01-27T01:23:54.437Z,19.10
2023-01-27T01:26:22.352Z,20.00
2023-01-27T01:28:50.393Z,17.70
2023-01-27T01:31:20.601Z,20.00
2023-01-27T01:33:49.106Z,17.60
2023-01-27T01:36:20.333Z,19.10
2023-01-27T01:38:48.868Z,17.80
2023-01-27T01:41:19.811Z,18.80
2023-01-27T01:43:49.545Z,15.50
2023-01-27T01:46:18.718Z,16.20
2023-01-27T01:48:49.795Z,16.70
2023-01-27T01:51:25.807Z,18.10
2023-01-27T01:54:13.445Z,17.60
2023-01-27T01:56:53.696Z,15.40
2023-01-27T01:59:33.660Z,15.80
2023-01-27T02:02:06.092Z,14.80
2023-01-27T02:04:39.137Z,16.50
2023-01-27T02:07:18.674Z,14.20
2023-01-27T02:09:46.873Z,14.30
2023-01-27T02:12:14.857Z,14.80
2023-01-27T02:14:43.078Z,14.10
2023-01-27T02:17:13.613Z,14.10
2023-01-27T02:20:06.294Z,14.80
2023-01-27T02:22:47.084Z,14.10
2023-01-27T02:25:26.901Z,13.60
2023-01-27T02:27:54.752Z,14.10
2023-01-27T02:30:22.715Z,13.60
2023-01-27T02:32:50.596Z,13.70
2023-01-27T02:35:44.451Z,14.70
2023-01-27T02:38:13.856Z,14.90
2023-01-27T02:40:41.954Z,14.80
2023-01-27T02:43:09.878Z,14.00
2023-01-27T02:45:37.799Z,14.90
2023-01-27T02:48:06.245Z,17.60
2023-01-27T02:50:34.124Z,15.70
2023-01-27T02:53:01.997Z,15.30
2023-01-27T02:55:29.888Z,16.00
2023-01-27T02:57:57.750Z,16.40
2023-01-27T03:00:25.753Z,16.50
2023-01-27T03:02:53.771Z,15.90
2023-01-27T03:05:22.087Z,17.00
2023-01-27T03:07:49.987Z,15.60
2023-01-27T03:10:18.017Z,16.60
2023-01-27T03:12:45.941Z,16.30
2023-01-27T03:15:32.159Z,14.80
2023-01-27T03:18:13.921Z,15.80
2023-01-27T03:20:47.634Z,14.40
2023-01-27T03:23:18.515Z,14.60
2023-01-27T03:25:48.348Z,15.20
2023-01-27T03:28:16.458Z,15.40
2023-01-27T03:30:44.393Z,14.90
2023-01-27T03:33:12.390Z,16.80
2023-01-27T03:35:48.482Z,15.50
2023-01-27T03:38:35.571Z,15.80
2023-01-27T03:41:22.563Z,15.60
2023-01-27T03:44:08.854Z,15.10
2023-01-27T03:46:36.761Z,15.80
2023-01-27T03:49:04.638Z,16.70
2023-01-27T03:51:32.466Z,16.70
2023-01-27T03:54:01.039Z,15.70
2023-01-27T03:56:29.048Z,15.80
2023-01-27T03:58:57.880Z,17.20
2023-01-27T04:01:25.854Z,16.40
2023-01-27T04:04:12.723Z,17.00
2023-01-27T04:06:54.646Z,17.80
2023-01-27T04:09:28.883Z,14.90
2023-01-27T04:11:59.943Z,17.00
2023-01-27T04:14:39.002Z,16.50
2023-01-27T04:17:12.575Z,17.20
2023-01-27T04:19:41.150Z,18.40
2023-01-27T04:22:13.780Z,16.90
2023-01-27T04:24:42.101Z,16.90
2023-01-27T04:27:13.368Z,17.80
2023-01-27T04:29:42.639Z,17.50
2023-01-27T04:32:12.859Z,18.30
2023-01-27T04:34:41.526Z,17.70
2023-01-27T04:37:10.745Z,19.60
2023-01-27T04:39:38.783Z,19.10
2023-01-27T04:42:06.816Z,18.80
2023-01-27T04:44:34.824Z,18.20
2023-01-27T04:47:02.762Z,19.20
2023-01-27T04:49:30.952Z,18.00
2023-01-27T04:51:58.908Z,16.40
2023-01-27T04:54:26.878Z,18.60
2023-01-27T04:56:58.636Z,16.20
2023-01-27T04:59:26.785Z,18.80
2023-01-27T05:01:54.892Z,20.00
2023-01-27T05:04:22.987Z,19.90
2023-01-27T05:06:50.910Z,19.00
2023-01-27T05:09:19.160Z,21.20
2023-01-27T05:11:47.152Z,19.20
2023-01-27T05:14:15.253Z,19.70
2023-01-27T05:16:43.231Z,21.00
2023-01-27T05:19:11.185Z,19.90
2023-01-27T05:21:39.057Z,19.00
2023-01-27T05:24:07.126Z,20.70
2023-01-27T05:26:35.640Z,18.80
2023-01-27T05:29:03.488Z,20.30
2023-01-27T05:31:32.125Z,19.90
2023-01-27T05:34:02.041Z,20.20
2023-01-27T05:36:30.851Z,19.80
2023-01-27T05:39:00.353Z,19.20
2023-01-27T05:41:31.937Z,18.60
2023-01-27T05:44:00.143Z,20.10
2023-01-27T05:46:31.203Z,21.40
2023-01-27T05:49:02.178Z,20.90
2023-01-27T05:54:05.835Z,19.20
2023-01-27T05:56:39.529Z,19.80
2023-01-27T05:59:07.901Z,21.40
2023-01-27T06:01:37.568Z,21.80
2023-01-27T06:04:06.121Z,22.10
2023-01-27T06:06:34.084Z,22.00
2023-01-27T06:09:02.354Z,21.20
2023-01-27T06:11:30.703Z,23.80
2023-01-27T06:13:58.795Z,22.10
2023-01-27T06:16:26.866Z,21.60
2023-01-27T06:18:54.755Z,21.10
2023-01-27T06:21:22.736Z,20.10
2023-01-27T06:23:50.766Z,20.30
2023-01-27T06:26:20.985Z,22.40
2023-01-27T06:28:48.942Z,21.00
2023-01-27T06:31:21.662Z,22.70
2023-01-27T06:33:51.314Z,21.20
2023-01-27T06:36:21.119Z,21.40
2023-01-27T06:38:49.741Z,20.30
2023-01-27T06:41:18.321Z,20.30
2023-01-27T06:43:46.211Z,21.00
2023-01-27T06:46:15.123Z,24.20
2023-01-27T06:48:43.157Z,20.30
2023-01-27T06:51:11.340Z,19.70
2023-01-27T06:53:39.292Z,22.80
2023-01-27T06:56:07.848Z,22.00
2023-01-27T06:58:35.886Z,21.50
2023-01-27T07:01:07.581Z,21.50
2023-01-27T07:03:35.852Z,20.40
2023-01-27T07:06:04.707Z,21.90
2023-01-27T07:08:33.075Z,20.40
2023-01-27T07:11:04.469Z,21.40
2023-01-27T07:13:32.414Z,21.10
2023-01-27T07:16:00.504Z,23.20
2023-01-27T07:18:28.479Z,22.60
2023-01-27T07:20:56.546Z,22.70
2023-01-27T07:23:24.491Z,23.60
2023-01-27T07:25:52.655Z,19.90
2023-01-27T07:28:20.502Z,19.50
2023-01-27T07:30:48.487Z,20.60
2023-01-27T07:33:16.409Z,19.50
2023-01-27T07:35:44.270Z,20.20
2023-01-27T07:38:12.107Z,19.70
2023-01-27T07:40:40.095Z,18.40
2023-01-27T07:43:08.011Z,18.80
2023-01-27T07:45:36.140Z,21.70
2023-01-27T07:48:07.154Z,18.20
2023-01-27T07:50:36.394Z,16.90
2023-01-27T07:53:05.597Z,18.80
2023-01-27T07:55:34.285Z,19.20
2023-01-27T07:58:04.882Z,21.00
2023-01-27T08:00:32.921Z,17.80
2023-01-27T08:03:02.027Z,18.50
2023-01-27T08:05:33.676Z,15.90
2023-01-27T08:08:04.324Z,17.80
2023-01-27T08:10:32.331Z,20.30
2023-01-27T08:13:00.303Z,17.00
2023-01-27T08:15:28.419Z,14.40
2023-01-27T08:17:58.167Z,12.90
2023-01-27T08:20:27.857Z,12.50
2023-01-27T08:22:56.345Z,13.70
2023-01-27T08:25:24.954Z,14.60
2023-01-27T08:27:55.237Z,14.10
2023-01-27T08:30:24.138Z,13.00
2023-01-27T08:32:52.153Z,14.40
2023-01-27T08:35:20.082Z,14.20
2023-01-27T08:37:48.960Z,14.20
2023-01-27T08:40:18.147Z,15.10
2023-01-27T08:42:46.123Z,13.60
2023-01-27T08:45:14.020Z,15.10
2023-01-27T08:47:42.149Z,14.10
2023-01-27T08:50:11.024Z,15.10
2023-01-27T08:52:40.079Z,15.00
2023-01-27T08:55:08.258Z,17.20
2023-01-27T08:57:37.136Z,17.50
2023-01-27T09:00:07.855Z,18.10
2023-01-27T09:02:36.050Z,16.50
2023-01-27T09:05:04.992Z,16.90
2023-01-27T09:07:33.283Z,15.90
2023-01-27T09:10:13.632Z,14.50
2023-01-27T09:12:44.329Z,17.00
2023-01-27T09:15:15.105Z,19.10
2023-01-27T09:17:43.101Z,17.20
2023-01-27T09:20:12.514Z,15.60
2023-01-27T09:22:41.574Z,14.00
2023-01-27T09:25:14.805Z,14.50
2023-01-27T09:27:45.183Z,15.70
2023-01-27T09:30:16.214Z,15.20
2023-01-27T09:32:44.498Z,15.20
2023-01-27T09:35:13.315Z,15.20
2023-01-27T09:37:51.304Z,16.80
2023-01-27T09:40:33.971Z,17.80
2023-01-27T09:43:23.060Z,44.60
2023-01-27T09:46:46.947Z,28.30
2023-01-27T09:49:54.802Z,15.80
2023-01-27T09:52:47.775Z,27.80
2023-01-27T09:55:25.293Z,39.50
2023-01-27T09:58:24.711Z,27.20
2023-01-27T10:01:19.982Z,16.80
2023-01-27T10:04:12.178Z,18.40
2023-01-27T10:06:48.802Z,17.60
2023-01-27T10:10:18.206Z,16.40
2023-01-27T10:13:31.505Z,17.60
2023-01-27T10:16:34.494Z,16.20
2023-01-27T10:19:19.534Z,15.80
2023-01-27T10:22:02.296Z,14.40
2023-01-27T10:25:00.726Z,14.00
2023-01-27T10:27:36.695Z,16.00
2023-01-27T10:30:38.434Z,17.60
2023-01-27T10:33:15.335Z,21.10
2023-01-27T10:35:58.457Z,21.70
2023-01-27T10:38:44.512Z,19.20
2023-01-27T10:41:27.412Z,21.40
2023-01-27T10:44:22.895Z,22.60
2023-01-27T10:47:41.125Z,23.10
2023-01-27T10:50:31.254Z,21.20
2023-01-27T10:53:10.171Z,18.10
2023-01-27T10:55:59.527Z,18.20
2023-01-27T10:58:52.170Z,20.80
2023-01-27T11:01:30.646Z,18.10
2023-01-27T11:04:31.170Z,14.90
2023-01-27T11:07:04.421Z,18.30
2023-01-27T11:09:43.224Z,19.30
2023-01-27T11:12:13.876Z,25.30
2023-01-27T11:15:01.919Z,21.20
2023-01-27T11:17:45.617Z,21.40
2023-01-27T11:20:35.278Z,20.60
2023-01-27T11:23:17.790Z,24.90
2023-01-27T11:26:08.445Z,17.20
2023-01-27T11:28:45.329Z,16.60
2023-01-27T11:31:37.742Z,18.90
2023-01-27T11:34:31.603Z,17.10
2023-01-27T11:37:01.171Z,16.80
2023-01-27T11:39:32.158Z,20.30
2023-01-27T11:42:00.146Z,19.90
2023-01-27T11:44:32.727Z,18.90
2023-01-27T11:47:02.911Z,21.40
2023-01-27T11:49:35.183Z,18.40
2023-01-27T11:52:13.127Z,20.80
2023-01-27T11:55:16.093Z,23.60
2023-01-27T11:57:54.101Z,23.90
2023-01-27T12:00:32.325Z,26.20
2023-01-27T12:03:27.417Z,21.90
2023-01-27T12:05:59.711Z,21.80
2023-01-27T12:08:56.830Z,20.50
2023-01-27T12:11:33.871Z,23.00
2023-01-27T12:14:05.025Z,21.00
2023-01-27T12:16:49.996Z,21.70
2023-01-27T12:19:32.897Z,21.70
2023-01-27T12:22:07.140Z,21.80
2023-01-27T12:25:00.130Z,21.30
2023-01-27T12:27:40.186Z,22.70
2023-01-27T12:30:20.233Z,22.60
2023-01-27T12:32:48.908Z,24.50
2023-01-27T12:35:48.437Z,24.10
2023-01-27T12:38:31.714Z,23.60
2023-01-27T12:41:07.845Z,22.80
2023-01-27T12:44:16.004Z,23.10
2023-01-27T12:47:21.108Z,21.70
2023-01-27T12:49:49.090Z,22.50
2023-01-27T12:52:22.055Z,23.10
2023-01-27T12:54:53.203Z,22.40
2023-01-27T12:57:22.611Z,24.00
2023-01-27T12:59:54.991Z,23.20
2023-01-27T13:02:25.877Z,22.60
2023-01-27T13:05:03.637Z,23.90
2023-01-27T13:07:53.069Z,24.90
2023-01-27T13:10:25.949Z,25.60
2023-01-27T13:12:59.426Z,23.40
2023-01-27T13:15:31.220Z,23.00
2023-01-27T13:18:12.689Z,24.70
2023-01-27T13:20:47.480Z,24.20
2023-01-27T13:23:35.180Z,23.50
2023-01-27T13:26:09.556Z,25.90
2023-01-27T13:28:52.775Z,31.40
2023-01-27T13:31:50.753Z,25.70
2023-01-27T13:34:41.984Z,26.40
2023-01-27T13:37:38.827Z,26.50
2023-01-27T13:40:37.882Z,30.30
2023-01-27T13:43:23.634Z,25.20
2023-01-27T13:46:21.843Z,28.50
2023-01-27T13:49:03.645Z,28.30
2023-01-27T13:51:33.759Z,27.30
2023-01-27T13:54:08.222Z,29.30
2023-01-27T13:57:04.233Z,26.80
2023-01-27T14:00:16.443Z,25.10
2023-01-27T14:03:12.175Z,25.90
2023-01-27T14:06:17.452Z,23.60
2023-01-27T14:09:13.941Z,24.00
2023-01-27T14:12:07.710Z,24.30
2023-01-27T14:14:58.762Z,24.80
2023-01-27T14:17:34.695Z,24.60
2023-01-27T14:21:01.265Z,24.70
2023-01-27T14:24:24.218Z,23.10
2023-01-27T14:27:05.542Z,24.00
2023-01-27T14:29:59.690Z,22.50
2023-01-27T14:32:45.408Z,23.40
2023-01-27T14:35:59.237Z,21.50
2023-01-27T14:38:39.667Z,23.20
2023-01-27T14:41:45.703Z,22.70
2023-01-27T14:44:43.555Z,23.50
2023-01-27T14:47:34.090Z,21.60
2023-01-27T14:50:16.665Z,22.20
2023-01-27T14:53:45.982Z,25.90
2023-01-27T14:56:44.565Z,20.70
2023-01-27T14:59:42.768Z,21.90
2023-01-27T15:02:41.145Z,19.70
2023-01-27T15:05:14.601Z,19.40
2023-01-27T15:07:54.383Z,19.90
2023-01-27T15:10:31.806Z,21.90
2023-01-27T15:13:50.658Z,20.30
2023-01-27T15:16:46.294Z,22.30
2023-01-27T15:19:51.900Z,22.90
2023-01-27T15:23:07.692Z,20.20
2023-01-27T15:25:53.170Z,21.80
2023-01-27T15:28:28.899Z,26.00
2023-01-27T15:31:22.325Z,26.20
2023-01-27T15:33:52.208Z,24.80
2023-01-27T15:36:32.033Z,24.60
2023-01-27T15:39:09.027Z,25.20
2023-01-27T15:41:38.910Z,24.70
2023-01-27T15:44:17.046Z,25.50
2023-01-27T15:46:56.132Z,25.20
2023-01-27T15:49:38.188Z,27.30
2023-01-27T15:52:29.925Z,29.50
2023-01-27T15:55:01.181Z,31.50
2023-01-27T15:57:35.623Z,27.70
2023-01-27T16:00:04.104Z,29.00
2023-01-27T16:02:33.175Z,34.00
2023-01-27T16:05:29.964Z,35.20
2023-01-27T16:08:03.167Z,35.60
2023-01-27T16:10:34.677Z,28.00
2023-01-27T16:13:27.390Z,28.10
2023-01-27T16:16:19.989Z,30.90
2023-01-27T16:19:10.885Z,32.60
2023-01-27T16:21:54.948Z,33.60
2023-01-27T16:24:30.164Z,31.90
2023-01-27T16:27:23.731Z,30.50
2023-01-27T16:29:59.538Z,26.90
2023-01-27T16:32:37.647Z,28.00
2023-01-27T16:35:19.550Z,25.20
2023-01-27T16:38:22.824Z,35.90
2023-01-27T16:41:19.480Z,27.80
2023-01-27T16:44:15.756Z,27.60
2023-01-27T16:46:51.020Z,24.60
2023-01-27T16:49:25.942Z,26.10
2023-01-27T16:52:00.249Z,27.20
2023-01-27T16:54:38.677Z,24.70
2023-01-27T16:57:10.306Z,26.20
2023-01-27T16:59:42.405Z,27.10
2023-01-27T17:02:19.270Z,27.10
2023-01-27T17:04:59.925Z,25.20
2023-01-27T17:07:28.066Z,28.30
2023-01-27T17:10:08.959Z,25.50
2023-01-27T17:12:47.666Z,25.10
2023-01-27T17:15:30.586Z,23.60
2023-01-27T17:17:58.682Z,24.70
2023-01-27T17:20:32.170Z,22.80
2023-01-27T17:23:00.903Z,22.30
2023-01-27T17:25:34.935Z,20.40
2023-01-27T17:28:07.600Z,22.40
2023-01-27T17:30:39.851Z,23.90
2023-01-27T17:33:17.288Z,23.90
2023-01-27T17:35:54.274Z,23.30
2023-01-27T17:38:27.968Z,26.70
2023-01-27T17:40:55.945Z,32.00
2023-01-27T17:43:29.260Z,22.80
2023-01-27T17:46:17.927Z,21.70
2023-01-27T17:48:55.800Z,20.30
2023-01-27T17:51:42.691Z,19.30
2023-01-27T17:54:32.713Z,20.90
2023-01-27T17:57:32.399Z,22.00
2023-01-27T18:00:10.733Z,22.40
2023-01-27T18:03:04.588Z,21.00
2023-01-27T18:05:33.905Z,21.50
2023-01-27T18:08:04.843Z,22.20
2023-01-27T18:10:40.913Z,24.70
2023-01-27T18:13:21.635Z,25.70
2023-01-27T18:16:01.629Z,27.10
2023-01-27T18:18:35.658Z,23.80
2023-01-27T18:21:22.509Z,23.00
2023-01-27T18:24:01.708Z,25.50
2023-01-27T18:26:40.886Z,21.40
2023-01-27T18:29:38.999Z,21.30
2023-01-27T18:32:12.893Z,18.30
2023-01-27T18:34:51.991Z,19.60
2023-01-27T18:37:34.545Z,19.30
2023-01-27T18:40:27.792Z,24.70
2023-01-27T18:42:58.323Z,21.40
2023-01-27T18:45:27.554Z,17.70
2023-01-27T18:47:56.692Z,21.90
2023-01-27T18:50:26.970Z,19.40
2023-01-27T18:52:55.343Z,27.90
2023-01-27T18:55:30.573Z,22.10
2023-01-27T18:58:00.510Z,19.50
2023-01-27T19:00:35.060Z,19.40
2023-01-27T19:03:04.986Z,18.00
2023-01-27T19:05:35.753Z,18.50
2023-01-27T19:08:04.939Z,17.50
2023-01-27T19:10:34.620Z,13.40
2023-01-27T19:13:04.258Z,14.10
2023-01-27T19:15:41.944Z,10.90
2023-01-27T19:18:34.104Z,11.30
2023-01-27T19:21:02.621Z,11.50
2023-01-27T19:23:32.574Z,10.90
2023-01-27T19:26:03.415Z,12.10
2023-01-27T19:28:35.741Z,10.70
2023-01-27T19:31:06.121Z,11.90
2023-01-27T19:33:37.238Z,10.60
2023-01-27T19:36:08.593Z,9.80
2023-01-27T19:38:37.016Z,10.10
2023-01-27T19:41:05.335Z,9.70
2023-01-27T19:43:33.264Z,10.30
2023-01-27T19:46:01.399Z,9.20
2023-01-27T19:48:29.461Z,10.20
2023-01-27T19:50:57.513Z,12.30
2023-01-27T19:53:26.093Z,13.50
2023-01-27T19:55:58.290Z,19.10
2023-01-27T19:58:28.776Z,14.40
2023-01-27T20:00:57.301Z,13.60
2023-01-27T20:03:26.091Z,10.70
2023-01-27T20:05:54.709Z,11.70
2023-01-27T20:08:23.475Z,13.40
2023-01-27T20:10:54.224Z,11.30
2023-01-27T20:13:24.199Z,9.30
2023-01-27T20:15:52.733Z,9.30
2023-01-27T20:18:23.861Z,9.30
2023-01-27T20:20:52.627Z,11.50
2023-01-27T20:23:21.268Z,13.10
2023-01-27T20:25:50.126Z,14.00
2023-01-27T20:28:19.197Z,14.10
2023-01-27T20:30:48.386Z,12.80
2023-01-27T20:33:16.944Z,11.90
2023-01-27T20:35:45.777Z,10.80
2023-01-27T20:38:14.920Z,12.40
2023-01-27T20:40:44.148Z,12.70
2023-01-27T20:43:15.722Z,11.20
2023-01-27T20:45:45.791Z,11.90
2023-01-27T20:48:14.051Z,12.00
2023-01-27T20:50:42.303Z,12.20
2023-01-27T20:53:10.310Z,12.60
2023-01-27T20:55:38.621Z,11.50
2023-01-27T20:58:06.665Z,10.60
2023-01-27T21:00:34.840Z,8.50
2023-01-27T21:03:04.290Z,9.90
2023-01-27T21:05:32.453Z,10.50
2023-01-27T21:08:00.678Z,11.00
2023-01-27T21:10:29.489Z,9.30
2023-01-27T21:12:58.005Z,10.70
2023-01-27T21:15:26.215Z,8.50
2023-01-27T21:17:54.905Z,8.10
2023-01-27T21:20:22.957Z,7.80
2023-01-27T21:22:51.067Z,8.00
2023-01-27T21:25:19.249Z,28.40
2023-01-27T21:27:48.199Z,8.30
2023-01-27T21:30:16.630Z,9.70
2023-01-27T21:32:44.559Z,8.90
2023-01-27T21:35:12.941Z,8.20
2023-01-27T21:37:42.715Z,7.50
2023-01-27T21:40:11.949Z,7.90
2023-01-27T21:42:58.471Z,7.90
2023-01-27T21:45:26.453Z,7.20
2023-01-27T21:47:54.463Z,6.70
2023-01-27T21:50:22.491Z,6.80
2023-01-27T21:52:51.179Z,8.10
2023-01-27T21:55:22.808Z,8.40
2023-01-27T21:57:53.304Z,7.00
2023-01-27T22:00:24.681Z,9.20
2023-01-27T22:02:57.845Z,9.80
2023-01-27T22:05:27.789Z,8.10
2023-01-27T22:07:55.969Z,8.50
2023-01-27T22:10:27.555Z,9.90
2023-01-27T22:13:03.632Z,11.60
2023-01-27T22:15:32.319Z,9.70
2023-01-27T22:18:00.619Z,9.30
2023-01-27T22:20:29.096Z,9.90
2023-01-27T22:22:57.083Z,11.00
2023-01-27T22:25:27.291Z,11.20
2023-01-27T22:27:55.967Z,11.30
2023-01-27T22:30:24.377Z,9.60
2023-01-27T22:33:01.772Z,11.80
2023-01-27T22:35:29.701Z,10.30
2023-01-27T22:37:57.657Z,10.30
2023-01-27T22:40:25.546Z,9.50
2023-01-27T22:42:53.792Z,10.80
2023-01-27T22:45:22.281Z,9.60
2023-01-27T22:47:50.469Z,10.20
2023-01-27T22:50:19.611Z,8.80
2023-01-27T22:52:47.879Z,9.70
2023-01-27T22:55:16.011Z,9.30
2023-01-27T22:57:45.259Z,12.60
2023-01-27T23:00:13.635Z,10.10
2023-01-27T23:02:41.599Z,8.70
2023-01-27T23:05:10.055Z,9.00
2023-01-27T23:07:37.916Z,8.40
2023-01-27T23:10:06.708Z,7.70
2023-01-27T23:12:34.577Z,8.30
2023-01-27T23:15:02.547Z,7.80
2023-01-27T23:17:30.490Z,9.20
2023-01-27T23:19:58.620Z,9.00
2023-01-27T23:22:26.550Z,9.00
2023-01-27T23:24:54.602Z,10.20
2023-01-27T23:27:22.480Z,10.80
2023-01-27T23:29:50.370Z,9.70
2023-01-27T23:32:18.273Z,9.50
2023-01-27T23:34:46.193Z,8.40
2023-01-27T23:37:14.144Z,8.30
2023-01-27T23:39:45.844Z,8.50
2023-01-27T23:42:14.792Z,7.80
2023-01-27T23:44:42.690Z,7.50
2023-01-27T23:47:11.924Z,6.10
2023-01-27T23:49:39.940Z,5.50
2023-01-27T23:52:07.957Z,5.60
2023-01-27T23:54:36.079Z,6.60
2023-01-27T23:57:04.105Z,5.90
2023-01-27T23:59:31.972Z,6.40
